createdAt,value
2018-03-07T00:02:26.607Z,65.83
2018-03-07T00:04:54.840Z,64.17
2018-03-07T00:07:23.092Z,64.83
2018-03-07T00:09:52.096Z,63.60
2018-03-07T00:12:21.118Z,60.90
2018-03-07T00:14:49.363Z,68.03
2018-03-07T00:17:18.368Z,67.57
2018-03-07T00:19:46.619Z,67.13
2018-03-07T00:22:15.643Z,65.80
2018-03-07T00:24:43.875Z,66.00
2018-03-07T00:27:12.116Z,66.57
2018-03-07T00:29:40.363Z,68.13
2018-03-07T00:32:08.613Z,66.10
2018-03-07T00:34:37.620Z,66.17
2018-03-07T00:37:05.872Z,68.33
2018-03-07T00:39:34.872Z,67.40
2018-03-07T00:42:03.892Z,66.53
2018-03-07T00:44:32.128Z,65.50
2018-03-07T00:47:01.146Z,61.93
2018-03-07T00:49:29.380Z,67.70
2018-03-07T00:51:57.615Z,65.37
2018-03-07T00:54:25.857Z,61.87
2018-03-07T00:56:54.115Z,60.37
2018-03-07T00:59:23.111Z,64.57
2018-03-07T01:01:52.124Z,62.50
2018-03-07T01:04:20.364Z,63.53
2018-03-07T01:06:48.615Z,63.23
2018-03-07T01:09:16.840Z,66.67
2018-03-07T01:11:45.097Z,65.53
2018-03-07T01:14:13.320Z,58.63
2018-03-07T01:16:41.581Z,60.53
2018-03-07T01:19:10.126Z,62.90
2018-03-07T01:21:39.120Z,65.23
2018-03-07T01:24:08.131Z,63.07
2018-03-07T01:26:36.365Z,66.27
2018-03-07T01:29:04.608Z,65.87
2018-03-07T01:31:32.848Z,63.43
2018-03-07T01:34:01.101Z,65.57
2018-03-07T01:36:30.097Z,64.90
2018-03-07T01:38:59.114Z,67.30
2018-03-07T01:41:27.346Z,63.33
2018-03-07T01:43:55.588Z,65.43
2018-03-07T01:46:23.820Z,65.00
2018-03-07T01:48:52.076Z,63.93
2018-03-07T01:51:21.072Z,66.40
2018-03-07T01:53:50.072Z,62.30
2018-03-07T01:56:19.088Z,68.87
2018-03-07T01:58:47.323Z,65.93
2018-03-07T02:01:16.345Z,65.97
2018-03-07T02:03:44.576Z,61.07
2018-03-07T02:06:12.819Z,65.43
2018-03-07T02:08:41.053Z,73.00
2018-03-07T02:11:09.303Z,69.13
2018-03-07T02:13:37.531Z,73.03
2018-03-07T02:16:05.784Z,72.87
2018-03-07T02:18:34.020Z,70.43
2018-03-07T02:21:02.512Z,74.27
2018-03-07T02:23:31.521Z,71.57
2018-03-07T02:25:59.754Z,67.43
2018-03-07T02:28:28.004Z,71.83
2018-03-07T02:30:56.241Z,70.37
2018-03-07T02:33:24.902Z,70.53
2018-03-07T02:35:53.112Z,70.13
2018-03-07T02:38:21.377Z,72.97
2018-03-07T02:40:49.619Z,74.73
2018-03-07T02:43:17.861Z,75.67
2018-03-07T02:45:46.108Z,71.83
2018-03-07T02:48:14.349Z,75.33
2018-03-07T02:50:43.359Z,74.83
2018-03-07T02:53:12.388Z,72.00
2018-03-07T02:55:40.624Z,73.17
2018-03-07T02:58:08.861Z,74.47
2018-03-07T03:00:37.109Z,73.07
2018-03-07T03:03:05.357Z,73.53
2018-03-07T03:05:33.604Z,71.30
2018-03-07T03:08:02.611Z,71.47
2018-03-07T03:13:05.163Z,74.30
2018-03-07T03:15:33.407Z,75.53
2018-03-07T03:18:01.649Z,73.77
2018-03-07T03:20:30.677Z,74.37
2018-03-07T03:22:58.896Z,73.63
2018-03-07T03:25:27.926Z,72.50
2018-03-07T03:27:56.172Z,75.97
2018-03-07T03:30:25.194Z,78.27
2018-03-07T03:32:53.445Z,71.90
2018-03-07T03:35:21.712Z,74.37
2018-03-07T03:37:50.712Z,74.30
2018-03-07T03:40:19.707Z,74.80
2018-03-07T03:42:47.965Z,75.03
2018-03-07T03:45:16.963Z,76.40
2018-03-07T03:47:45.990Z,77.40
2018-03-07T03:50:14.247Z,78.50
2018-03-07T03:52:42.492Z,79.53
2018-03-07T03:55:11.496Z,78.23
2018-03-07T03:57:39.759Z,75.57
2018-03-07T04:00:08.776Z,75.43
2018-03-07T04:02:37.049Z,76.27
2018-03-07T04:05:05.289Z,79.97
2018-03-07T04:07:33.532Z,79.73
2018-03-07T04:10:01.788Z,75.83
2018-03-07T04:12:30.038Z,75.10
2018-03-07T04:14:58.291Z,75.20
2018-03-07T04:17:27.304Z,76.63
2018-03-07T04:19:55.568Z,73.87
2018-03-07T04:22:24.572Z,75.67
2018-03-07T04:24:52.816Z,72.50
2018-03-07T04:27:21.079Z,74.93
2018-03-07T04:29:49.316Z,73.00
2018-03-07T04:32:17.584Z,72.00
2018-03-07T04:34:45.824Z,72.90
2018-03-07T04:37:14.858Z,77.00
2018-03-07T04:39:43.150Z,78.37
2018-03-07T04:42:11.379Z,73.13
2018-03-07T04:44:39.621Z,70.37
2018-03-07T04:47:07.881Z,74.30
2018-03-07T04:49:36.121Z,75.23
2018-03-07T04:52:04.402Z,73.13
2018-03-07T04:54:32.636Z,75.50
2018-03-07T04:57:01.640Z,74.47
2018-03-07T04:59:29.899Z,72.50
2018-03-07T05:01:58.915Z,74.67
2018-03-07T05:04:27.172Z,74.80
2018-03-07T05:06:56.180Z,75.33
2018-03-07T05:09:24.444Z,72.30
2018-03-07T05:11:52.690Z,69.83
2018-03-07T05:14:20.936Z,72.70
2018-03-07T05:16:49.181Z,73.47
2018-03-07T05:19:17.449Z,73.57
2018-03-07T05:21:45.704Z,77.00
2018-03-07T05:24:14.717Z,77.53
2018-03-07T05:26:42.995Z,78.20
2018-03-07T05:29:11.443Z,79.23
2018-03-07T05:31:40.464Z,74.33
2018-03-07T05:34:08.708Z,76.97
2018-03-07T05:36:37.732Z,76.33
2018-03-07T05:39:05.979Z,75.77
2018-03-07T05:41:34.989Z,77.77
2018-03-07T05:44:03.243Z,79.33
2018-03-07T05:46:32.268Z,75.33
2018-03-07T05:49:00.514Z,75.43
2018-03-07T05:51:29.520Z,75.03
2018-03-07T05:53:57.785Z,79.30
2018-03-07T05:56:26.798Z,79.83
2018-03-07T05:58:55.051Z,80.77
2018-03-07T06:01:23.312Z,77.63
2018-03-07T06:03:51.552Z,79.63
2018-03-07T06:06:19.796Z,79.40
2018-03-07T06:08:48.060Z,80.20
2018-03-07T06:11:16.309Z,80.47
2018-03-07T06:13:45.346Z,80.23
2018-03-07T06:16:13.662Z,78.03
2018-03-07T06:18:41.920Z,83.47
2018-03-07T06:21:10.171Z,79.90
2018-03-07T06:23:38.409Z,81.00
2018-03-07T06:26:07.433Z,78.67
2018-03-07T06:28:35.676Z,76.47
2018-03-07T06:31:04.701Z,76.67
2018-03-07T06:33:32.951Z,77.17
2018-03-07T06:36:01.229Z,83.37
2018-03-07T06:38:29.468Z,86.43
2018-03-07T06:40:57.718Z,82.00
2018-03-07T06:43:25.956Z,81.33
2018-03-07T06:45:54.225Z,80.57
2018-03-07T06:48:22.459Z,80.47
2018-03-07T06:50:50.712Z,86.43
2018-03-07T06:53:18.948Z,84.17
2018-03-07T06:55:47.204Z,83.40
2018-03-07T06:58:16.209Z,83.47
2018-03-07T07:00:44.450Z,86.23
2018-03-07T07:03:12.720Z,78.47
2018-03-07T07:05:40.944Z,83.87
2018-03-07T07:08:09.205Z,83.40
2018-03-07T07:10:37.433Z,88.90
2018-03-07T07:13:05.684Z,83.27
2018-03-07T07:15:33.925Z,84.03
2018-03-07T07:18:02.178Z,83.40
2018-03-07T07:20:31.184Z,82.90
2018-03-07T07:22:59.450Z,81.13
2018-03-07T07:25:28.445Z,81.23
2018-03-07T07:27:57.468Z,79.20
2018-03-07T07:30:25.713Z,79.23
2018-03-07T07:32:54.718Z,78.47
2018-03-07T07:35:22.974Z,77.87
2018-03-07T07:37:51.980Z,77.53
2018-03-07T07:40:20.231Z,76.77
2018-03-07T07:42:49.235Z,79.83
2018-03-07T07:45:18.261Z,79.37
2018-03-07T07:47:46.492Z,80.13
2018-03-07T07:50:15.523Z,77.80
2018-03-07T07:52:43.759Z,76.90
2018-03-07T07:55:12.824Z,77.33
2018-03-07T07:57:41.111Z,78.83
2018-03-07T08:00:09.324Z,78.30
2018-03-07T08:02:37.570Z,78.83
2018-03-07T08:05:06.582Z,81.73
2018-03-07T08:07:34.842Z,80.70
2018-03-07T08:10:03.848Z,79.33
2018-03-07T08:12:32.102Z,77.50
2018-03-07T08:15:01.113Z,79.73
2018-03-07T08:17:29.372Z,79.97
2018-03-07T08:19:58.376Z,79.90
2018-03-07T08:22:26.637Z,80.20
2018-03-07T08:24:55.645Z,80.40
2018-03-07T08:27:23.906Z,75.93
2018-03-07T08:29:52.917Z,80.37
2018-03-07T08:32:21.174Z,78.33
2018-03-07T08:34:50.177Z,79.77
2018-03-07T08:37:18.433Z,77.53
2018-03-07T08:39:47.465Z,79.60
2018-03-07T08:42:15.695Z,75.70
2018-03-07T08:44:44.714Z,77.07
2018-03-07T08:47:12.976Z,76.20
2018-03-07T08:49:42.008Z,77.40
2018-03-07T08:52:10.242Z,74.73
2018-03-07T08:54:39.262Z,76.40
2018-03-07T08:57:07.498Z,76.90
2018-03-07T08:59:36.524Z,72.20
2018-03-07T09:02:04.773Z,74.03
2018-03-07T09:04:33.782Z,75.70
2018-03-07T09:07:02.045Z,75.00
2018-03-07T09:09:30.291Z,76.77
2018-03-07T09:11:58.533Z,77.20
2018-03-07T09:14:26.775Z,74.87
2018-03-07T09:16:55.029Z,77.97
2018-03-07T09:19:24.421Z,77.33
2018-03-07T09:21:53.725Z,76.10
2018-03-07T09:24:22.725Z,76.30
2018-03-07T09:26:51.750Z,76.73
2018-03-07T09:29:19.989Z,72.93
2018-03-07T09:31:49.008Z,76.60
2018-03-07T09:34:17.245Z,74.40
2018-03-07T09:36:46.254Z,77.03
2018-03-07T09:39:14.908Z,76.10
2018-03-07T09:41:43.117Z,74.87
2018-03-07T09:44:11.370Z,74.93
2018-03-07T09:46:40.377Z,74.80
2018-03-07T09:49:08.638Z,75.33
2018-03-07T09:51:37.645Z,73.10
2018-03-07T09:54:05.899Z,73.43
2018-03-07T09:56:34.976Z,75.10
2018-03-07T09:59:03.166Z,74.67
2018-03-07T10:01:32.160Z,73.60
2018-03-07T10:04:01.181Z,72.23
2018-03-07T10:06:29.425Z,74.77
2018-03-07T10:08:58.440Z,72.97
2018-03-07T10:11:26.687Z,73.60
2018-03-07T10:13:55.692Z,72.67
2018-03-07T10:16:23.950Z,73.47
2018-03-07T10:18:52.954Z,76.10
2018-03-07T10:21:21.979Z,75.07
2018-03-07T10:23:50.204Z,74.13
2018-03-07T10:26:19.229Z,77.47
2018-03-07T10:28:47.474Z,74.63
2018-03-07T10:31:16.488Z,74.80
2018-03-07T10:33:44.722Z,76.37
2018-03-07T10:36:12.956Z,75.93
2018-03-07T10:38:41.276Z,70.57
2018-03-07T10:41:09.505Z,76.57
2018-03-07T10:43:37.765Z,74.80
2018-03-07T10:46:06.003Z,74.27
2018-03-07T10:48:35.035Z,77.23
2018-03-07T10:51:03.277Z,73.03
2018-03-07T10:53:32.291Z,78.07
2018-03-07T10:56:00.541Z,75.67
2018-03-07T10:58:29.536Z,75.67
2018-03-07T11:00:58.557Z,75.27
2018-03-07T11:03:26.797Z,72.83
2018-03-07T11:05:55.812Z,76.93
2018-03-07T11:08:24.055Z,74.40
2018-03-07T11:10:52.305Z,73.40
2018-03-07T11:13:20.549Z,75.37
2018-03-07T11:15:48.805Z,74.67
2018-03-07T11:18:17.054Z,73.70
2018-03-07T11:20:46.061Z,75.00
2018-03-07T11:23:15.085Z,72.43
2018-03-07T11:25:43.322Z,74.50
2018-03-07T11:28:12.342Z,75.43
2018-03-07T11:30:40.582Z,74.97
2018-03-07T11:33:09.601Z,76.20
2018-03-07T11:35:37.845Z,73.73
2018-03-07T11:38:06.861Z,75.63
2018-03-07T11:40:35.097Z,76.27
2018-03-07T11:43:03.344Z,77.40
2018-03-07T11:45:31.581Z,77.77
2018-03-07T11:47:59.838Z,74.10
2018-03-07T11:50:28.845Z,77.97
2018-03-07T11:52:57.097Z,76.70
2018-03-07T11:55:26.099Z,78.27
2018-03-07T11:57:55.121Z,77.53
2018-03-07T12:00:23.360Z,76.10
2018-03-07T12:02:52.371Z,74.33
2018-03-07T12:05:20.627Z,77.23
2018-03-07T12:07:49.628Z,77.43
2018-03-07T12:10:17.881Z,77.50
2018-03-07T12:12:46.879Z,75.27
2018-03-07T12:15:15.906Z,75.63
2018-03-07T12:17:44.142Z,77.23
2018-03-07T12:20:13.157Z,78.13
2018-03-07T12:22:41.395Z,80.17
2018-03-07T12:25:10.261Z,78.70
2018-03-07T12:27:38.493Z,79.70
2018-03-07T12:30:06.965Z,79.27
2018-03-07T12:32:35.960Z,82.73
2018-03-07T12:35:04.220Z,81.80
2018-03-07T12:37:33.227Z,80.37
2018-03-07T12:40:01.460Z,79.90
2018-03-07T12:42:29.706Z,78.30
2018-03-07T12:44:57.958Z,80.63
2018-03-07T12:47:26.209Z,80.77
2018-03-07T12:49:55.207Z,82.10
2018-03-07T12:52:24.221Z,79.33
2018-03-07T12:54:52.456Z,79.73
2018-03-07T12:57:21.477Z,79.50
2018-03-07T12:59:49.712Z,78.17
2018-03-07T13:02:17.970Z,77.67
2018-03-07T13:04:46.209Z,82.47
2018-03-07T13:07:14.460Z,81.37
2018-03-07T13:09:42.696Z,81.27
2018-03-07T13:12:12.462Z,81.77
2018-03-07T13:14:41.729Z,80.37
2018-03-07T13:17:10.729Z,78.97
2018-03-07T13:19:39.755Z,77.33
2018-03-07T13:22:07.992Z,78.57
2018-03-07T13:24:37.009Z,80.43
2018-03-07T13:27:05.249Z,78.10
2018-03-07T13:29:34.272Z,78.57
2018-03-07T13:32:02.505Z,77.57
2018-03-07T13:34:30.777Z,73.43
2018-03-07T13:36:58.996Z,75.40
2018-03-07T13:39:27.253Z,72.53
2018-03-07T13:41:55.484Z,76.10
2018-03-07T13:44:23.741Z,72.43
2018-03-07T13:46:51.987Z,74.60
2018-03-07T13:49:20.546Z,71.77
2018-03-07T13:51:49.561Z,74.80
2018-03-07T13:54:17.796Z,73.50
2018-03-07T13:56:46.041Z,72.63
2018-03-07T13:59:14.273Z,72.47
2018-03-07T14:01:42.528Z,73.87
2018-03-07T14:04:11.528Z,69.63
2018-03-07T14:06:40.546Z,68.80
2018-03-07T14:09:08.780Z,69.13
2018-03-07T14:11:37.866Z,68.43
2018-03-07T14:14:06.104Z,64.90
2018-03-07T14:16:34.366Z,65.63
2018-03-07T14:19:02.612Z,65.67
2018-03-07T14:21:31.617Z,64.90
2018-03-07T14:23:59.869Z,66.30
2018-03-07T14:26:28.872Z,64.93
2018-03-07T14:28:57.136Z,64.87
2018-03-07T14:31:26.124Z,62.90
2018-03-07T14:33:55.136Z,61.53
2018-03-07T14:36:23.377Z,56.50
2018-03-07T14:38:51.618Z,56.47
2018-03-07T14:41:19.852Z,53.83
2018-03-07T14:43:48.086Z,53.13
2018-03-07T14:46:16.342Z,54.10
2018-03-07T14:48:44.557Z,54.83
2018-03-07T14:51:13.572Z,55.80
2018-03-07T14:53:41.809Z,55.37
2018-03-07T14:56:10.048Z,56.10
2018-03-07T14:58:38.276Z,57.50
2018-03-07T15:01:07.303Z,58.57
2018-03-07T15:03:35.524Z,56.00
2018-03-07T15:06:03.784Z,54.50
2018-03-07T15:08:32.021Z,57.13
2018-03-07T15:11:00.249Z,56.47
2018-03-07T15:13:29.264Z,56.77
2018-03-07T15:15:57.498Z,57.53
2018-03-07T15:18:26.192Z,56.13
2018-03-07T15:20:54.401Z,56.07
2018-03-07T15:23:22.653Z,56.87
2018-03-07T15:25:51.649Z,57.47
2018-03-07T15:28:20.665Z,59.87
2018-03-07T15:30:48.958Z,58.23
2018-03-07T15:33:17.208Z,58.87
2018-03-07T15:35:45.429Z,56.87
2018-03-07T15:38:13.681Z,57.17
2018-03-07T15:40:41.904Z,56.33
2018-03-07T15:43:10.920Z,56.77
2018-03-07T15:45:39.154Z,58.93
2018-03-07T15:48:07.384Z,56.73
2018-03-07T15:50:35.648Z,58.00
2018-03-07T15:53:03.882Z,57.33
2018-03-07T15:55:32.124Z,58.47
2018-03-07T15:58:00.352Z,56.90
2018-03-07T16:00:29.415Z,57.60
2018-03-07T16:02:57.626Z,57.57
2018-03-07T16:05:25.876Z,59.87
2018-03-07T16:07:54.864Z,59.13
2018-03-07T16:10:23.856Z,61.90
2018-03-07T16:12:52.864Z,58.73
2018-03-07T16:15:21.101Z,59.03
2018-03-07T16:17:49.349Z,56.83
2018-03-07T16:20:17.564Z,59.63
2018-03-07T16:22:46.598Z,57.30
2018-03-07T16:25:14.825Z,60.03
2018-03-07T16:27:43.064Z,56.97
2018-03-07T16:30:11.288Z,55.20
2018-03-07T16:32:40.304Z,56.43
2018-03-07T16:35:08.548Z,55.03
2018-03-07T16:37:37.553Z,56.27
2018-03-07T16:40:06.554Z,54.50
2018-03-07T16:42:34.817Z,54.80
2018-03-07T16:45:03.815Z,55.10
2018-03-07T16:47:32.072Z,55.83
2018-03-07T16:50:01.079Z,54.33
2018-03-07T16:52:30.073Z,54.80
2018-03-07T16:54:58.321Z,56.60
2018-03-07T16:57:26.556Z,56.30
2018-03-07T16:59:54.810Z,56.33
2018-03-07T17:02:23.053Z,57.50
2018-03-07T17:04:52.065Z,54.33
2018-03-07T17:07:20.310Z,55.57
2018-03-07T17:09:49.315Z,56.10
2018-03-07T17:12:18.321Z,56.80
2018-03-07T17:14:46.576Z,56.70
2018-03-07T17:17:15.575Z,53.53
2018-03-07T17:19:44.593Z,57.17
2018-03-07T17:22:12.833Z,55.60
2018-03-07T17:24:41.847Z,57.57
2018-03-07T17:27:10.081Z,53.77
2018-03-07T17:29:38.318Z,57.50
2018-03-07T17:32:06.589Z,57.63
2018-03-07T17:34:35.026Z,57.17
2018-03-07T17:37:04.097Z,58.27
2018-03-07T17:39:32.366Z,58.20
2018-03-07T17:42:00.652Z,57.80
2018-03-07T17:44:28.895Z,57.57
2018-03-07T17:46:57.145Z,56.97
2018-03-07T17:49:25.377Z,57.93
2018-03-07T17:51:53.626Z,58.80
2018-03-07T17:54:21.852Z,56.63
2018-03-07T17:56:50.101Z,58.83
2018-03-07T17:59:18.333Z,58.80
2018-03-07T18:01:46.590Z,58.20
2018-03-07T18:04:14.826Z,55.47
2018-03-07T18:06:44.832Z,61.50
2018-03-07T18:09:13.116Z,62.97
2018-03-07T18:11:42.119Z,61.23
2018-03-07T18:14:11.120Z,58.97
2018-03-07T18:16:39.404Z,61.03
2018-03-07T18:19:07.634Z,62.47
2018-03-07T18:21:35.893Z,62.90
2018-03-07T18:24:04.137Z,62.07
2018-03-07T18:26:32.397Z,61.47
2018-03-07T18:29:00.637Z,59.97
2018-03-07T18:31:28.885Z,59.43
2018-03-07T18:33:57.113Z,57.07
2018-03-07T18:36:25.367Z,57.23
2018-03-07T18:38:54.370Z,55.93
2018-03-07T18:41:23.372Z,59.60
2018-03-07T18:43:51.617Z,57.23
2018-03-07T18:46:19.853Z,60.13
2018-03-07T18:48:48.106Z,62.70
2018-03-07T18:51:16.354Z,61.87
2018-03-07T18:53:45.364Z,63.93
2018-03-07T18:56:13.605Z,64.43
2018-03-07T18:58:42.611Z,64.20
2018-03-07T19:01:10.849Z,65.17
2018-03-07T19:03:39.106Z,64.33
2018-03-07T19:06:07.341Z,62.17
2018-03-07T19:08:35.594Z,59.97
2018-03-07T19:11:03.820Z,61.10
2018-03-07T19:13:32.083Z,62.30
2018-03-07T19:16:00.372Z,65.60
2018-03-07T19:18:28.633Z,72.53
2018-03-07T19:20:56.869Z,69.93
2018-03-07T19:23:25.885Z,73.77
2018-03-07T19:25:54.133Z,72.13
2018-03-07T19:28:23.151Z,67.87
2018-03-07T19:30:51.393Z,65.40
2018-03-07T19:33:20.408Z,66.43
2018-03-07T19:35:48.655Z,65.30
2018-03-07T19:38:16.897Z,65.03
2018-03-07T19:40:45.140Z,66.40
2018-03-07T19:43:13.384Z,70.97
2018-03-07T19:45:42.402Z,65.07
2018-03-07T19:48:10.632Z,68.50
2018-03-07T19:50:38.895Z,73.27
2018-03-07T19:53:07.140Z,64.00
2018-03-07T19:55:35.391Z,65.50
2018-03-07T19:58:03.624Z,65.67
2018-03-07T20:00:31.870Z,66.23
2018-03-07T20:03:00.112Z,68.27
2018-03-07T20:05:28.369Z,71.67
2018-03-07T20:07:57.368Z,72.20
2018-03-07T20:10:26.393Z,68.70
2018-03-07T20:12:54.625Z,69.27
2018-03-07T20:15:23.650Z,66.70
2018-03-07T20:17:51.900Z,68.27
2018-03-07T20:20:20.916Z,70.40
2018-03-07T20:22:49.157Z,69.07
2018-03-07T20:25:18.185Z,68.40
2018-03-07T20:27:46.420Z,66.90
2018-03-07T20:30:15.433Z,68.57
2018-03-07T20:32:43.664Z,69.57
2018-03-07T20:35:11.915Z,70.37
2018-03-07T20:37:40.155Z,71.67
2018-03-07T20:40:08.412Z,69.33
2018-03-07T20:42:37.424Z,66.60
2018-03-07T20:45:05.685Z,69.83
2018-03-07T20:47:34.688Z,76.30
2018-03-07T20:50:02.954Z,69.57
2018-03-07T20:52:31.951Z,68.50
2018-03-07T20:55:00.205Z,70.27
2018-03-07T20:57:29.253Z,76.87
2018-03-07T20:59:57.513Z,72.40
2018-03-07T21:02:25.744Z,77.07
2018-03-07T21:04:54.752Z,81.60
2018-03-07T21:07:23.773Z,83.10
2018-03-07T21:09:52.000Z,83.63
2018-03-07T21:12:21.017Z,85.50
2018-03-07T21:14:49.256Z,84.20
2018-03-07T21:17:17.513Z,87.93
2018-03-07T21:19:46.509Z,84.03
2018-03-07T21:22:14.752Z,84.07
2018-03-07T21:24:42.988Z,88.37
2018-03-07T21:27:11.999Z,93.60
2018-03-07T21:29:40.245Z,90.23
2018-03-07T21:32:09.253Z,94.77
2018-03-07T21:34:37.488Z,93.50
2018-03-07T21:37:05.746Z,91.97
2018-03-07T21:39:34.743Z,92.30
2018-03-07T21:42:02.993Z,83.40
2018-03-07T21:44:31.229Z,91.73
2018-03-07T21:47:00.249Z,89.83
2018-03-07T21:49:28.483Z,89.10
2018-03-07T21:51:57.548Z,87.87
2018-03-07T21:54:25.780Z,88.40
2018-03-07T21:56:54.038Z,89.40
2018-03-07T21:59:23.041Z,87.20
2018-03-07T22:01:51.606Z,87.63
2018-03-07T22:04:20.605Z,83.27
2018-03-07T22:06:49.625Z,81.27
2018-03-07T22:09:17.869Z,77.20
2018-03-07T22:11:46.881Z,72.10
2018-03-07T22:14:15.119Z,72.37
2018-03-07T22:16:43.361Z,77.57
2018-03-07T22:19:11.593Z,75.40
2018-03-07T22:21:39.848Z,76.20
2018-03-07T22:24:08.853Z,76.17
2018-03-07T22:26:37.852Z,72.70
2018-03-07T22:29:06.109Z,68.87
2018-03-07T22:31:35.109Z,68.17
2018-03-07T22:34:04.124Z,63.40
2018-03-07T22:36:32.355Z,58.53
2018-03-07T22:39:01.372Z,56.40
2018-03-07T22:41:29.604Z,54.57
2018-03-07T22:43:57.861Z,54.50
2018-03-07T22:46:26.084Z,51.53
2018-03-07T22:48:55.378Z,51.63
2018-03-07T22:51:24.384Z,52.87
2018-03-07T22:53:52.628Z,55.27
2018-03-07T22:56:20.864Z,53.47
2018-03-07T22:58:49.119Z,51.87
2018-03-07T23:01:17.572Z,50.53
2018-03-07T23:03:46.588Z,47.73
2018-03-07T23:06:14.825Z,48.37
2018-03-07T23:08:43.081Z,49.27
2018-03-07T23:11:11.317Z,53.27
2018-03-07T23:13:39.559Z,54.37
2018-03-07T23:16:08.564Z,53.13
2018-03-07T23:18:36.811Z,51.30
2018-03-07T23:21:05.811Z,53.80
2018-03-07T23:23:34.825Z,56.47
2018-03-07T23:26:03.063Z,58.17
2018-03-07T23:28:31.318Z,61.93
2018-03-07T23:30:59.561Z,64.93
2018-03-07T23:33:27.796Z,63.03
2018-03-07T23:35:56.844Z,56.57
2018-03-07T23:38:25.113Z,54.07
2018-03-07T23:40:53.338Z,53.37
2018-03-07T23:43:22.336Z,51.93
2018-03-07T23:45:51.353Z,47.73
2018-03-07T23:48:19.582Z,42.77
2018-03-07T23:50:47.815Z,41.10
2018-03-07T23:53:16.067Z,38.20
2018-03-07T23:55:45.069Z,38.13
2018-03-07T23:58:13.305Z,37.87
